Red Springs, North Carolina
Current Conditions -  °F | °C
As of 10:59 AM on Wednesday 26 Nov 2014 (Local Time) from KMEB Reporting Station
Overcast Overcast  
Wind Chill: 45°   Ceiling: 1400
Heat Index: 49°   Visibility: 10mi
Dew Point: 46°   Wind: 8mph
Humidity: 90%   Direction: 330°NNW
Pressure: 29.94"   Gusts: NA
Location:  34.82°N, 79.18°W
Report Text: KMEB 261559Z AUTO 33007KT 10SM OVC014 09/08 A2994 RMK AO2 RAE53 PRESRR P0000 T00940078
Loading
Personal Weather Stations






























Interactive Weather Map New forecast layout! Learn more

10-Day Weather Forecast

Advertisements
Track Severe Weather on mobile